createdAt,value
2023-04-05T00:01:39.564Z,2.83
2023-04-05T00:04:08.020Z,2.43
2023-04-05T00:06:37.853Z,2.33
2023-04-05T00:09:07.164Z,2.47
2023-04-05T00:11:35.415Z,4.10
2023-04-05T00:14:03.883Z,2.70
2023-04-05T00:16:33.451Z,2.70
2023-04-05T00:19:02.143Z,3.13
2023-04-05T00:21:30.320Z,4.30
2023-04-05T00:23:58.583Z,2.67
2023-04-05T00:26:26.660Z,7.37
2023-04-05T00:28:54.685Z,2.20
2023-04-05T00:31:22.788Z,2.50
2023-04-05T00:33:52.291Z,2.90
2023-04-05T00:36:37.381Z,2.40
2023-04-05T00:39:05.473Z,4.90
2023-04-05T00:41:33.559Z,4.63
2023-04-05T00:44:03.882Z,3.20
2023-04-05T00:46:32.027Z,2.40
2023-04-05T00:49:01.452Z,6.33
2023-04-05T00:51:32.178Z,2.67
2023-04-05T00:54:03.694Z,2.30
2023-04-05T00:56:31.987Z,2.80
2023-04-05T00:59:00.106Z,2.80
2023-04-05T01:01:28.327Z,2.27
2023-04-05T01:04:00.498Z,4.20
2023-04-05T01:06:58.170Z,3.47
2023-04-05T01:09:38.494Z,3.80
2023-04-05T01:12:08.187Z,2.10
2023-04-05T01:14:47.999Z,2.77
2023-04-05T01:17:22.380Z,2.10
2023-04-05T01:19:53.553Z,3.73
2023-04-05T01:22:41.332Z,2.93
2023-04-05T01:25:19.763Z,3.10
2023-04-05T01:27:58.156Z,2.57
2023-04-05T01:30:29.267Z,2.93
2023-04-05T01:33:03.430Z,2.63
2023-04-05T01:35:34.940Z,3.23
2023-04-05T01:38:04.563Z,2.40
2023-04-05T01:40:32.940Z,4.87
2023-04-05T01:43:03.076Z,2.53
2023-04-05T01:45:32.517Z,2.80
2023-04-05T01:48:01.228Z,3.17
2023-04-05T01:50:29.338Z,2.73
2023-04-05T01:52:57.395Z,3.60
2023-04-05T01:55:25.409Z,2.63
2023-04-05T01:57:55.780Z,4.90
2023-04-05T02:00:23.986Z,4.30
2023-04-05T02:02:56.803Z,2.47
2023-04-05T02:05:24.906Z,3.50
2023-04-05T02:07:52.948Z,3.07
2023-04-05T02:10:25.777Z,3.80
2023-04-05T02:12:53.828Z,2.80
2023-04-05T02:15:21.888Z,3.00
2023-04-05T02:17:56.654Z,3.03
2023-04-05T02:20:25.996Z,2.43
2023-04-05T02:22:54.086Z,2.90
2023-04-05T02:25:22.149Z,2.93
2023-04-05T02:27:50.213Z,3.20
2023-04-05T02:30:18.249Z,3.10
2023-04-05T02:32:47.011Z,4.33
2023-04-05T02:35:17.373Z,3.03
2023-04-05T02:37:45.470Z,2.87
2023-04-05T02:40:15.144Z,4.77
2023-04-05T02:42:43.265Z,3.70
2023-04-05T02:45:11.971Z,2.97
2023-04-05T02:47:40.034Z,2.67
2023-04-05T02:50:09.145Z,2.60
2023-04-05T02:52:38.671Z,3.07
2023-04-05T02:55:07.439Z,2.50
2023-04-05T02:57:35.597Z,4.33
2023-04-05T03:00:05.074Z,3.73
2023-04-05T03:02:33.194Z,3.10
2023-04-05T03:05:02.447Z,2.90
2023-04-05T03:07:30.589Z,3.10
2023-04-05T03:10:00.238Z,4.20
2023-04-05T03:12:28.272Z,5.20
2023-04-05T03:14:56.421Z,3.27
2023-04-05T03:17:24.529Z,3.57
2023-04-05T03:19:52.663Z,4.47
2023-04-05T03:22:21.380Z,3.00
2023-04-05T03:24:49.450Z,3.60
2023-04-05T03:27:21.936Z,3.60
2023-04-05T03:29:50.177Z,3.40
2023-04-05T03:32:18.215Z,3.00
2023-04-05T03:34:49.346Z,2.90
2023-04-05T03:37:17.390Z,3.13
2023-04-05T03:39:45.629Z,3.73
2023-04-05T03:42:13.675Z,2.87
2023-04-05T03:44:43.097Z,5.63
2023-04-05T03:47:11.178Z,2.93
2023-04-05T03:49:39.273Z,3.83
2023-04-05T03:52:07.353Z,2.83
2023-04-05T03:54:35.435Z,3.43
2023-04-05T03:57:03.568Z,3.50
2023-04-05T03:59:31.655Z,3.60
2023-04-05T04:02:03.012Z,4.70
2023-04-05T04:04:31.604Z,4.00
2023-04-05T04:06:59.674Z,6.80
2023-04-05T04:09:29.783Z,4.03
2023-04-05T04:11:57.958Z,3.70
2023-04-05T04:14:25.996Z,3.70
2023-04-05T04:16:54.075Z,3.63
2023-04-05T04:19:23.521Z,5.57
2023-04-05T04:21:52.453Z,4.83
2023-04-05T04:24:20.796Z,4.70
2023-04-05T04:26:48.870Z,4.80
2023-04-05T04:29:17.331Z,4.60
2023-04-05T04:31:48.566Z,5.07
2023-04-05T04:34:18.811Z,5.10
2023-04-05T04:36:48.359Z,9.17
2023-04-05T04:39:16.448Z,4.23
2023-04-05T04:41:47.225Z,5.07
2023-04-05T04:44:15.297Z,4.77
2023-04-05T04:46:43.821Z,4.00
2023-04-05T04:49:13.335Z,11.70
2023-04-05T04:51:58.606Z,5.03
2023-04-05T04:54:27.772Z,5.83
2023-04-05T04:56:55.977Z,5.83
2023-04-05T04:59:24.146Z,4.57
2023-04-05T05:01:52.307Z,4.40
2023-04-05T05:04:20.501Z,9.57
2023-04-05T05:06:48.601Z,6.23
2023-04-05T05:09:18.017Z,5.23
2023-04-05T05:11:49.372Z,4.90
2023-04-05T05:14:17.408Z,9.03
2023-04-05T05:16:45.823Z,6.33
2023-04-05T05:19:13.936Z,5.80
2023-04-05T05:21:42.005Z,6.37
2023-04-05T05:24:10.172Z,5.30
2023-04-05T05:26:39.631Z,6.60
2023-04-05T05:29:07.976Z,4.80
2023-04-05T05:31:36.620Z,6.10
2023-04-05T05:34:07.495Z,6.17
2023-04-05T05:36:36.207Z,5.47
2023-04-05T05:39:05.197Z,5.13
2023-04-05T05:41:33.255Z,5.97
2023-04-05T05:44:02.696Z,5.63
2023-04-05T05:46:31.037Z,5.40
2023-04-05T05:49:01.454Z,5.17
2023-04-05T05:51:29.527Z,6.57
2023-04-05T05:53:57.605Z,5.23
2023-04-05T05:56:25.674Z,8.67
2023-04-05T05:58:53.801Z,8.60
2023-04-05T06:01:28.288Z,9.03
2023-04-05T06:03:56.616Z,4.90
2023-04-05T06:06:25.404Z,8.70
2023-04-05T06:08:53.466Z,5.90
2023-04-05T06:11:23.110Z,5.80
2023-04-05T06:13:52.598Z,6.90
2023-04-05T06:16:22.226Z,6.80
2023-04-05T06:18:50.485Z,6.40
2023-04-05T06:21:18.753Z,7.17
2023-04-05T06:23:49.423Z,10.00
2023-04-05T06:26:19.157Z,5.17
2023-04-05T06:28:48.147Z,4.70
2023-04-05T06:31:17.706Z,6.77
2023-04-05T06:33:47.346Z,7.07
2023-04-05T06:36:19.478Z,9.20
2023-04-05T06:38:47.526Z,5.90
2023-04-05T06:41:15.604Z,5.20
2023-04-05T06:43:43.731Z,5.10
2023-04-05T06:46:14.240Z,7.80
2023-04-05T06:48:44.287Z,6.20
2023-04-05T06:51:14.853Z,6.40
2023-04-05T06:53:43.142Z,5.47
2023-04-05T06:56:11.281Z,7.60
2023-04-05T06:58:39.490Z,6.57
2023-04-05T07:01:07.657Z,5.07
2023-04-05T07:03:36.198Z,6.60
2023-04-05T07:06:04.392Z,5.10
2023-04-05T07:08:34.147Z,8.07
2023-04-05T07:11:02.267Z,5.30
2023-04-05T07:13:30.414Z,5.47
2023-04-05T07:16:01.423Z,5.20
2023-04-05T07:18:30.104Z,5.87
2023-04-05T07:21:00.296Z,4.87
2023-04-05T07:23:28.646Z,5.33
2023-04-05T07:26:04.466Z,6.10
2023-04-05T07:28:33.233Z,6.03
2023-04-05T07:31:01.492Z,5.77
2023-04-05T07:33:31.476Z,7.80
2023-04-05T07:35:59.652Z,5.63
2023-04-05T07:38:31.502Z,8.37
2023-04-05T07:41:01.136Z,10.47
2023-04-05T07:43:29.187Z,6.60
2023-04-05T07:46:02.663Z,9.40
2023-04-05T07:48:30.911Z,5.43
2023-04-05T07:51:04.130Z,7.63
2023-04-05T07:53:32.277Z,4.53
2023-04-05T07:56:06.524Z,7.10
2023-04-05T07:58:34.625Z,5.10
2023-04-05T08:01:07.644Z,6.10
2023-04-05T08:03:36.258Z,4.30
2023-04-05T08:06:22.361Z,5.40
2023-04-05T08:08:55.643Z,8.50
2023-04-05T08:11:26.157Z,7.63
2023-04-05T08:13:55.900Z,3.93
2023-04-05T08:16:23.991Z,8.77
2023-04-05T08:18:52.123Z,3.83
2023-04-05T08:21:20.223Z,4.40
2023-04-05T08:23:50.034Z,5.30
2023-04-05T08:26:18.095Z,6.07
2023-04-05T08:28:47.482Z,5.73
2023-04-05T08:31:15.610Z,3.80
2023-04-05T08:33:43.752Z,4.10
2023-04-05T08:36:12.281Z,5.40
2023-04-05T08:38:43.513Z,6.50
2023-04-05T08:41:16.133Z,4.73
2023-04-05T08:43:54.004Z,5.10
2023-04-05T08:46:22.106Z,5.30
2023-04-05T08:48:50.382Z,3.83
2023-04-05T08:51:20.532Z,4.53
2023-04-05T08:53:48.633Z,4.10
2023-04-05T08:56:16.973Z,3.87
2023-04-05T08:58:50.649Z,4.03
2023-04-05T09:01:18.770Z,3.70
2023-04-05T09:03:46.943Z,4.03
2023-04-05T09:06:20.476Z,3.40
2023-04-05T09:08:48.581Z,4.93
2023-04-05T09:11:19.542Z,6.50
2023-04-05T09:13:48.978Z,5.07
2023-04-05T09:16:19.603Z,3.53
2023-04-05T09:18:49.556Z,2.93
2023-04-05T09:21:18.075Z,3.90
2023-04-05T09:23:55.957Z,4.33
2023-04-05T09:26:24.841Z,3.10
2023-04-05T09:28:56.951Z,3.90
2023-04-05T09:31:31.927Z,3.77
2023-04-05T09:34:01.641Z,2.80
2023-04-05T09:36:29.765Z,2.90
2023-04-05T09:39:16.294Z,3.73
2023-04-05T09:41:44.362Z,3.30
2023-04-05T09:44:13.773Z,3.53
2023-04-05T09:46:44.864Z,3.03
2023-04-05T09:49:14.449Z,3.40
2023-04-05T09:51:42.629Z,4.00
2023-04-05T09:54:11.864Z,3.47
2023-04-05T09:56:40.936Z,2.60
2023-04-05T09:59:10.867Z,4.10
2023-04-05T10:01:41.639Z,3.10
2023-04-05T10:04:13.762Z,3.37
2023-04-05T10:06:42.576Z,2.90
2023-04-05T10:09:11.605Z,4.67
2023-04-05T10:11:39.964Z,2.83
2023-04-05T10:14:13.630Z,5.03
2023-04-05T10:16:47.409Z,4.00
2023-04-05T10:19:17.939Z,2.83
2023-04-05T10:21:46.016Z,3.10
2023-04-05T10:24:36.715Z,2.90
2023-04-05T10:27:10.183Z,5.00
2023-04-05T10:29:43.284Z,5.03
2023-04-05T10:32:15.221Z,3.70
2023-04-05T10:34:45.133Z,2.77
2023-04-05T10:37:15.110Z,3.77
2023-04-05T10:39:46.677Z,5.80
2023-04-05T10:42:18.194Z,2.87
2023-04-05T10:44:47.007Z,2.60
2023-04-05T10:47:17.373Z,2.73
2023-04-05T10:49:46.832Z,2.37
2023-04-05T10:52:14.963Z,2.53
2023-04-05T10:54:43.028Z,3.37
2023-04-05T10:57:11.369Z,3.33
2023-04-05T10:59:42.938Z,2.77
2023-04-05T11:02:11.556Z,3.23
2023-04-05T11:04:45.274Z,2.43
2023-04-05T11:07:14.364Z,3.20
2023-04-05T11:09:52.682Z,2.60
2023-04-05T11:12:20.798Z,2.30
2023-04-05T11:14:48.829Z,2.60
2023-04-05T11:17:26.425Z,2.60
2023-04-05T11:19:59.393Z,2.63
2023-04-05T11:22:29.069Z,2.50
2023-04-05T11:24:59.202Z,2.97
2023-04-05T11:27:28.190Z,3.03
2023-04-05T11:29:56.568Z,3.90
2023-04-05T11:32:24.721Z,2.50
2023-04-05T11:35:03.730Z,6.33
2023-04-05T11:37:58.346Z,3.10
2023-04-05T11:40:28.153Z,2.17
2023-04-05T11:43:07.594Z,3.07
2023-04-05T11:45:37.174Z,2.57
2023-04-05T11:48:08.731Z,2.80
2023-04-05T11:50:39.231Z,2.40
2023-04-05T11:53:14.070Z,2.30
2023-04-05T11:55:44.571Z,2.10
2023-04-05T11:58:13.971Z,2.17
2023-04-05T12:00:42.505Z,2.77
2023-04-05T12:03:13.510Z,1.80
2023-04-05T12:05:50.565Z,2.50
2023-04-05T12:08:18.980Z,2.37
2023-04-05T12:10:54.372Z,3.43
2023-04-05T12:13:28.210Z,2.47
2023-04-05T12:15:58.091Z,2.10
2023-04-05T12:18:26.559Z,2.40
2023-04-05T12:20:56.032Z,1.60
2023-04-05T12:23:24.243Z,1.90
2023-04-05T12:25:54.188Z,2.40
2023-04-05T12:28:22.234Z,3.07
2023-04-05T12:30:50.435Z,2.80
2023-04-05T12:33:27.879Z,2.47
2023-04-05T12:35:57.361Z,3.33
2023-04-05T12:38:27.152Z,2.50
2023-04-05T12:40:55.330Z,2.27
2023-04-05T12:43:23.409Z,2.57
2023-04-05T12:45:56.516Z,1.70
2023-04-05T12:48:26.105Z,1.90
2023-04-05T12:50:55.152Z,2.70
2023-04-05T12:53:28.463Z,1.97
2023-04-05T12:55:56.907Z,2.80
2023-04-05T12:58:28.834Z,1.90
2023-04-05T13:00:56.882Z,2.20
2023-04-05T13:03:26.676Z,2.23
2023-04-05T13:05:54.801Z,1.83
2023-04-05T13:08:24.371Z,1.70
2023-04-05T13:10:52.468Z,1.73
2023-04-05T13:13:21.671Z,2.07
2023-04-05T13:15:52.072Z,2.30
2023-04-05T13:18:20.746Z,3.37
2023-04-05T13:20:48.884Z,2.63
2023-04-05T13:23:16.978Z,2.03
2023-04-05T13:25:46.475Z,2.50
2023-04-05T13:28:14.716Z,1.93
2023-04-05T13:30:42.781Z,2.73
2023-04-05T13:33:10.956Z,3.17
2023-04-05T13:35:49.828Z,2.00
2023-04-05T13:38:17.898Z,1.87
2023-04-05T13:40:47.482Z,3.10
2023-04-05T13:43:15.610Z,2.20
2023-04-05T13:45:43.828Z,3.63
2023-04-05T13:48:12.108Z,2.90
2023-04-05T13:50:40.486Z,2.53
2023-04-05T13:53:09.077Z,2.17
2023-04-05T13:55:38.069Z,1.83
2023-04-05T13:58:07.498Z,1.97
2023-04-05T14:00:35.556Z,2.43
2023-04-05T14:03:04.135Z,2.53
2023-04-05T14:05:37.825Z,2.10
2023-04-05T14:08:05.990Z,2.37
2023-04-05T14:10:34.023Z,1.97
2023-04-05T14:13:02.116Z,1.70
2023-04-05T14:15:31.864Z,1.90
2023-04-05T14:17:59.935Z,2.07
2023-04-05T14:20:28.014Z,2.00
2023-04-05T14:22:56.167Z,1.90
2023-04-05T14:25:25.851Z,1.53
2023-04-05T14:27:53.896Z,1.67
2023-04-05T14:30:21.989Z,1.67
2023-04-05T14:32:51.467Z,2.37
2023-04-05T14:35:19.623Z,1.60
2023-04-05T14:37:47.715Z,3.40
2023-04-05T14:40:16.140Z,2.50
2023-04-05T14:42:49.395Z,2.10
2023-04-05T14:45:18.747Z,2.20
2023-04-05T14:47:46.920Z,1.97
2023-04-05T14:50:16.535Z,3.20
2023-04-05T14:52:45.429Z,2.73
2023-04-05T14:55:13.534Z,2.13
2023-04-05T14:57:41.825Z,2.30
2023-04-05T15:00:14.838Z,1.80
2023-04-05T15:02:42.967Z,1.83
2023-04-05T15:05:11.415Z,2.00
2023-04-05T15:07:40.876Z,2.00
2023-04-05T15:10:09.584Z,1.90
2023-04-05T15:12:37.658Z,1.67
2023-04-05T15:15:06.770Z,3.07
2023-04-05T15:17:34.871Z,1.47
2023-04-05T15:20:02.976Z,1.53
2023-04-05T15:22:31.300Z,1.73
2023-04-05T15:25:00.953Z,1.80
2023-04-05T15:27:29.114Z,1.80
2023-04-05T15:29:57.193Z,1.97
2023-04-05T15:32:25.298Z,1.60
2023-04-05T15:34:53.402Z,1.77
2023-04-05T15:37:21.689Z,2.90
2023-04-05T15:39:49.748Z,1.80
2023-04-05T15:42:21.753Z,1.70
2023-04-05T15:44:49.854Z,1.80
2023-04-05T15:47:17.914Z,1.77
2023-04-05T15:49:46.072Z,2.53
2023-04-05T15:52:15.495Z,1.43
2023-04-05T15:54:44.400Z,1.60
2023-04-05T15:57:12.531Z,3.33
2023-04-05T15:59:41.988Z,2.20
2023-04-05T16:02:10.520Z,1.77
2023-04-05T16:04:39.365Z,2.23
2023-04-05T16:07:09.308Z,1.17
2023-04-05T16:09:37.383Z,1.80
2023-04-05T16:12:05.511Z,2.10
2023-04-05T16:14:33.909Z,2.60
2023-04-05T16:17:03.382Z,1.90
2023-04-05T16:19:31.584Z,1.87
2023-04-05T16:22:00.121Z,1.77
2023-04-05T16:24:28.310Z,1.93
2023-04-05T16:26:56.861Z,3.50
2023-04-05T16:29:25.115Z,1.50
2023-04-05T16:31:53.258Z,2.00
2023-04-05T16:34:27.589Z,1.50
2023-04-05T16:36:55.667Z,1.70
2023-04-05T16:39:23.740Z,3.00
2023-04-05T16:41:51.789Z,1.70
2023-04-05T16:44:19.853Z,1.53
2023-04-05T16:46:47.904Z,1.60
2023-04-05T16:49:16.132Z,1.90
2023-04-05T16:51:46.239Z,1.33
2023-04-05T16:54:15.307Z,4.27
2023-04-05T16:56:43.339Z,1.20
2023-04-05T16:59:11.621Z,1.60
2023-04-05T17:01:39.898Z,1.63
2023-04-05T17:04:08.070Z,1.70
2023-04-05T17:06:36.142Z,1.63
2023-04-05T17:09:05.761Z,1.77
2023-04-05T17:11:33.993Z,1.73
2023-04-05T17:14:02.055Z,1.83
2023-04-05T17:16:30.116Z,1.50
2023-04-05T17:18:58.178Z,2.10
2023-04-05T17:21:26.462Z,1.47
2023-04-05T17:23:54.544Z,3.10
2023-04-05T17:26:24.615Z,2.73
2023-04-05T17:28:52.748Z,2.00
2023-04-05T17:31:26.069Z,2.00
2023-04-05T17:33:54.141Z,1.53
2023-04-05T17:36:22.240Z,1.80
2023-04-05T17:38:50.423Z,1.50
2023-04-05T17:41:18.487Z,2.03
2023-04-05T17:43:47.932Z,2.13
2023-04-05T17:46:27.380Z,1.67
2023-04-05T17:49:02.546Z,1.70
2023-04-05T17:51:31.681Z,1.97
2023-04-05T17:53:59.783Z,1.60
2023-04-05T17:56:27.918Z,3.73
2023-04-05T17:58:57.380Z,1.50
2023-04-05T18:01:26.199Z,1.87
2023-04-05T18:03:54.357Z,2.27
2023-04-05T18:06:22.822Z,1.20
2023-04-05T18:08:56.061Z,1.30
2023-04-05T18:11:25.171Z,1.43
2023-04-05T18:13:53.193Z,1.83
2023-04-05T18:16:22.829Z,1.60
2023-04-05T18:18:50.942Z,1.80
2023-04-05T18:21:19.057Z,1.10
2023-04-05T18:23:47.128Z,2.00
2023-04-05T18:26:15.216Z,1.50
2023-04-05T18:28:43.306Z,1.57
2023-04-05T18:31:11.896Z,1.73
2023-04-05T18:33:41.600Z,1.60
2023-04-05T18:36:09.751Z,2.30
2023-04-05T18:38:37.868Z,1.80
2023-04-05T18:41:07.165Z,1.50
2023-04-05T18:43:35.299Z,1.73
2023-04-05T18:46:03.473Z,1.60
2023-04-05T18:48:31.541Z,1.40
2023-04-05T18:51:01.102Z,2.50
2023-04-05T18:53:29.173Z,1.77
2023-04-05T18:55:57.226Z,1.43
2023-04-05T18:58:25.503Z,1.70
2023-04-05T19:00:53.613Z,1.93
2023-04-05T19:03:21.825Z,1.40
2023-04-05T19:05:51.060Z,1.30
2023-04-05T19:08:20.787Z,1.70
2023-04-05T19:10:48.878Z,1.73
2023-04-05T19:13:16.956Z,2.00
2023-04-05T19:15:50.093Z,1.70
2023-04-05T19:18:19.648Z,1.33
2023-04-05T19:20:47.699Z,1.73
2023-04-05T19:23:15.759Z,1.70
2023-04-05T19:25:45.661Z,1.70
2023-04-05T19:28:13.737Z,1.60
2023-04-05T19:30:41.769Z,1.60
2023-04-05T19:33:09.947Z,1.90
2023-04-05T19:35:38.086Z,5.47
2023-04-05T19:38:06.295Z,2.17
2023-04-05T19:40:34.443Z,1.70
2023-04-05T19:43:03.908Z,1.73
2023-04-05T19:45:32.285Z,1.70
2023-04-05T19:48:01.430Z,2.20
2023-04-05T19:50:50.472Z,1.60
2023-04-05T19:53:36.787Z,1.80
2023-04-05T19:56:05.598Z,1.67
2023-04-05T19:58:35.049Z,1.60
2023-04-05T20:01:03.089Z,2.10
2023-04-05T20:03:32.246Z,1.90
2023-04-05T20:06:10.743Z,1.60
2023-04-05T20:08:39.586Z,2.10
2023-04-05T20:11:12.350Z,2.77
2023-04-05T20:13:43.440Z,1.80
2023-04-05T20:16:12.940Z,1.90
2023-04-05T20:18:41.066Z,1.80
2023-04-05T20:21:09.125Z,1.77
2023-04-05T20:23:37.195Z,1.87
2023-04-05T20:26:08.127Z,1.90
2023-04-05T20:28:38.244Z,1.93
2023-04-05T20:31:11.422Z,2.30
2023-04-05T20:33:49.542Z,1.90
2023-04-05T20:36:19.097Z,2.10
2023-04-05T20:38:47.442Z,2.00
2023-04-05T20:41:32.617Z,2.13
2023-04-05T20:44:02.181Z,2.73
2023-04-05T20:46:32.376Z,1.90
2023-04-05T20:49:00.745Z,2.17
2023-04-05T20:51:28.801Z,2.00
2023-04-05T20:54:02.273Z,1.80
2023-04-05T20:56:30.386Z,2.00
2023-04-05T20:58:58.479Z,1.97
2023-04-05T21:01:27.194Z,2.23
2023-04-05T21:03:56.803Z,1.90
2023-04-05T21:06:24.933Z,2.23
2023-04-05T21:08:52.965Z,1.73
2023-04-05T21:11:21.545Z,2.40
2023-04-05T21:13:49.940Z,2.27
2023-04-05T21:16:18.426Z,2.03
2023-04-05T21:18:57.795Z,2.13
2023-04-05T21:21:26.415Z,2.00
2023-04-05T21:23:54.528Z,3.47
2023-04-05T21:26:22.701Z,2.63
2023-04-05T21:29:14.572Z,2.23
2023-04-05T21:31:42.668Z,2.27
2023-04-05T21:34:12.168Z,2.40
2023-04-05T21:36:40.280Z,2.80
2023-04-05T21:39:08.538Z,2.67
2023-04-05T21:41:36.840Z,2.73
2023-04-05T21:44:08.209Z,2.40
2023-04-05T21:46:36.486Z,2.07
2023-04-05T21:49:04.928Z,2.40
2023-04-05T21:51:34.398Z,2.30
2023-04-05T21:54:02.465Z,2.50
2023-04-05T21:56:30.522Z,2.63
2023-04-05T21:58:58.599Z,2.73
2023-04-05T22:01:26.713Z,3.40
2023-04-05T22:03:54.733Z,3.80
2023-04-05T22:06:22.768Z,3.70
2023-04-05T22:08:53.863Z,2.90
2023-04-05T22:11:23.764Z,4.23
2023-04-05T22:13:51.999Z,3.23
2023-04-05T22:16:20.222Z,3.00
2023-04-05T22:18:50.228Z,2.97
2023-04-05T22:21:18.354Z,3.23
2023-04-05T22:23:46.665Z,4.53
2023-04-05T22:26:22.094Z,3.40
2023-04-05T22:28:50.277Z,3.40
2023-04-05T22:31:26.339Z,3.20
2023-04-05T22:33:54.406Z,4.30
2023-04-05T22:36:22.454Z,3.63
2023-04-05T22:38:52.200Z,3.30
2023-04-05T22:41:23.094Z,3.53
2023-04-05T22:43:51.136Z,3.40
2023-04-05T22:46:19.685Z,4.37
2023-04-05T22:48:48.333Z,3.10
2023-04-05T22:51:16.387Z,3.30
2023-04-05T22:53:44.502Z,3.70
2023-04-05T22:56:12.563Z,3.10
2023-04-05T22:58:42.001Z,4.50
2023-04-05T23:01:10.104Z,3.53
2023-04-05T23:03:38.188Z,3.80
2023-04-05T23:06:06.571Z,3.50
2023-04-05T23:08:35.594Z,5.03
2023-04-05T23:11:03.700Z,4.50
2023-04-05T23:13:31.786Z,4.47
2023-04-05T23:16:01.256Z,3.90
2023-04-05T23:18:29.344Z,4.60
2023-04-05T23:20:57.385Z,4.33
2023-04-05T23:23:25.904Z,4.60
2023-04-05T23:25:53.970Z,4.53
2023-04-05T23:28:22.026Z,4.87
2023-04-05T23:30:50.172Z,3.50
2023-04-05T23:33:19.617Z,5.00
2023-04-05T23:35:47.661Z,5.20
2023-04-05T23:38:15.738Z,4.27
2023-04-05T23:40:50.287Z,3.90
2023-04-05T23:43:18.354Z,6.03
2023-04-05T23:45:46.414Z,4.30
2023-04-05T23:48:27.717Z,4.50
2023-04-05T23:50:56.291Z,4.30
2023-04-05T23:53:24.351Z,5.63
2023-04-05T23:55:53.441Z,5.37
2023-04-05T23:58:21.749Z,4.50
